This is the latest recevied weather packets stored in our database for station/object SQ9MHX-13. If no packets are shown the sender has not sent any weather packets the latest 10 day(s).
| Time | Temp. | Humidity | Pressure | Rain* | Wind** | Luminosity | Snow |
|---|---|---|---|---|---|---|---|
| 1777783786 | 11.11° C | 69% | 975.3 hPa | - | 0 m/s | - | - |
| 1777783488 | 10° C | 69% | 974.9 hPa | - | 0 m/s | - | - |
| 1777783189 | 11.11° C | 67% | 975.1 hPa | - | 0 m/s | - | - |
| 1777782891 | 11.11° C | 65% | 976.1 hPa | - | 0 m/s | - | - |
| 1777782294 | 11.11° C | 66% | 977.2 hPa | - | 0 m/s | - | - |
| 1777781996 | 10° C | 66% | 978 hPa | - | 0 m/s | - | - |
| 1777781697 | 8.89° C | 69% | 978.8 hPa | - | 0 m/s | - | - |
| 1777781399 | 7.78° C | 72% | 979.4 hPa | - | 0 m/s | - | - |
| 1777781101 | 8.89° C | 70% | 979 hPa | - | 0 m/s | - | - |
| 1777780802 | 8.89° C | 71% | 979.8 hPa | - | 0 m/s | - | - |
| 1777780504 | 7.78° C | 73% | 980.6 hPa | - | 0 m/s | - | - |
| 1777780206 | 7.22° C | 75% | 981.3 hPa | - | 0 m/s | - | - |
| 1777779908 | 7.22° C | 76% | 981.9 hPa | - | 0 m/s | - | - |
| 1777779610 | 6.11° C | 79% | 982 hPa | - | 0 m/s | - | - |
| 1777779312 | 6.11° C | 80% | 982.4 hPa | - | 0 m/s | - | - |
| 1777778715 | 6.11° C | 84% | 983.3 hPa | - | 0 m/s | - | - |
| 1777778417 | 5° C | 85% | 983.8 hPa | - | 0 m/s | - | - |
| 1777778119 | 5° C | 87% | 984.8 hPa | - | 0 m/s | - | - |
| 1777777821 | 3.89° C | 89% | 985.4 hPa | - | 0 m/s | - | - |
| 1777777523 | 3.89° C | 88% | 985.3 hPa | - | 0 m/s | - | - |
| 1777777225 | 3.89° C | 86% | 984.2 hPa | - | 0 m/s | - | - |
| 1777776927 | 3.89° C | 86% | 984.4 hPa | - | 0 m/s | - | - |
| 1777776629 | 3.89° C | 86% | 984.2 hPa | - | 0 m/s | - | - |
| 1777776331 | 5° C | 85% | 984 hPa | - | 0 m/s | - | - |
| 1777776033 | 5° C | 86% | 984.7 hPa | - | 0 m/s | - | - |
* Rain since midnight (hover to see other rain measurements)
** Current wind speed in m/s (hover to see current wind gust speed)